Flight Briefing for CPX955

Departure Arrival
Sacramento International Airport (KSMF)
Click to view FAA NOTAMS
Travis Air Force Base (KSUU)
Click to view FAA NOTAMS
Departure Time Arrival Time
N/A N/A
Aircraft Distance
B757-200SF 30nm
Departure METAR Arrival METAR
KSMF 151953Z 16008KT 10SM FEW011 BKN180 09/05 A2999 RMK AO2 SLP155 P0004 T00890050 $ KSUU 152046Z AUTO 26013G19KT 10SM -RA FEW041 FEW070 SCT120 10/05 A2998 RMK AO2 RAE24RAB46 SLP159 $
Suggested Route
DCT


View recent IFR Routes data
Notes
EMPTY | NON-REVENUE REPOSITIONING LEG | VFR DEPARTURE RCMD IF WX PERMITS

Charts and Procedures

Charts for KSMF
No chart available
Charts for KSUU
No chart available

Ventusky Weather